UAAH/BXH METAR and TAF weather

Enter ICAO airport designator
Station Type Date Time Source
UAAH METAR 2018/12/10 11:00 UTC NOAA

UAAH 101100Z 09004MPS 9999 BKN019 M05/M09 Q1023 NOSIG RMK QFE730/0973


Station Type Date Time Source
UAAH Decoded METAR 2018/12/10 11:00 UTC NOAA

Station name not available
Dec 10, 2018 - 06:00 AM EST / 2018.12.10 1100 UTC
Wind: from the E (090 degrees) at 9 MPH (8 KT):0
Visibility: greater than 7 mile(s):0
Sky conditions: mostly cloudy
Temperature: 23 F (-5 C)
Windchill: 14 F (-10 C):1
Dew Point: 15 F (-9 C)
Relative Humidity: 73%
Pressure (altimeter): 30.21 in. Hg (1023 hPa)
ob: UAAH 101100Z 09004MPS 9999 BKN019 M05/M09 Q1023 NOSIG RMK QFE730/0973
cycle: 11

Station Type Date Time Source
UAAH TAF 2016/09/21 12:09 UTC NOAA

TAF
AMD TAF
AMD UAAH 211506Z 2112/2124 36006MPS CAVOK


Example: see airport list